createdAt,value
2019-04-04T00:01:41.072Z,34.80
2019-04-04T00:04:10.542Z,35.20
2019-04-04T00:06:40.009Z,34.80
2019-04-04T00:09:11.173Z,35.00
2019-04-04T00:11:40.822Z,35.20
2019-04-04T00:14:12.664Z,35.50
2019-04-04T00:16:41.436Z,35.50
2019-04-04T00:19:10.924Z,35.60
2019-04-04T00:21:40.398Z,35.70
2019-04-04T00:24:09.982Z,35.80
2019-04-04T00:26:41.736Z,36.20
2019-04-04T00:29:10.530Z,36.00
2019-04-04T00:31:40.034Z,36.20
2019-04-04T00:34:09.896Z,36.20
2019-04-04T00:36:39.428Z,36.30
2019-04-04T00:39:09.924Z,36.50
2019-04-04T00:41:39.495Z,36.50
2019-04-04T00:44:08.936Z,37.00
2019-04-04T00:46:38.385Z,36.80
2019-04-04T00:49:08.102Z,37.00
2019-04-04T00:51:39.149Z,37.10
2019-04-04T00:54:08.654Z,37.20
2019-04-04T00:56:38.102Z,37.30
2019-04-04T00:59:07.737Z,37.20
2019-04-04T01:01:37.199Z,37.40
2019-04-04T01:04:06.649Z,37.40
2019-04-04T01:06:36.178Z,37.20
2019-04-04T01:09:11.333Z,37.40
2019-04-04T01:11:37.897Z,37.70
2019-04-04T01:14:07.384Z,37.70
2019-04-04T01:16:36.849Z,37.70
2019-04-04T01:19:09.682Z,37.70
2019-04-04T01:21:37.767Z,37.60
2019-04-04T01:24:07.232Z,37.90
2019-04-04T01:26:36.670Z,37.80
2019-04-04T01:29:10.010Z,37.70
2019-04-04T01:31:37.637Z,38.30
2019-04-04T01:34:07.083Z,38.00
2019-04-04T01:36:36.930Z,38.00
2019-04-04T01:39:07.342Z,38.10
2019-04-04T01:41:37.036Z,38.70
2019-04-04T01:44:06.666Z,37.90
2019-04-04T01:46:36.173Z,37.70
2019-04-04T01:49:05.845Z,37.70
2019-04-04T01:51:35.300Z,38.50
2019-04-04T01:54:04.828Z,38.00
2019-04-04T01:56:34.998Z,38.00
2019-04-04T01:59:05.801Z,38.00
2019-04-04T02:01:35.313Z,38.20
2019-04-04T02:04:04.755Z,38.30
2019-04-04T02:06:34.356Z,38.00
2019-04-04T02:09:05.728Z,38.40
2019-04-04T02:11:37.253Z,38.30
2019-04-04T02:14:06.325Z,38.40
2019-04-04T02:16:35.836Z,38.40
2019-04-04T02:19:05.426Z,38.30
2019-04-04T02:21:34.889Z,38.40
2019-04-04T02:24:04.710Z,38.30
2019-04-04T02:26:36.140Z,38.40
2019-04-04T02:29:05.322Z,38.30
2019-04-04T02:31:38.363Z,38.40
2019-04-04T02:34:07.846Z,38.40
2019-04-04T02:36:37.305Z,38.30
2019-04-04T02:39:14.027Z,38.30
2019-04-04T02:41:47.687Z,38.30
2019-04-04T02:44:14.565Z,38.30
2019-04-04T02:46:45.470Z,38.30
2019-04-04T02:49:15.248Z,38.20
2019-04-04T02:51:44.877Z,38.90
2019-04-04T02:54:14.381Z,38.80
2019-04-04T02:56:44.025Z,39.20
2019-04-04T02:59:13.547Z,38.50
2019-04-04T03:01:43.043Z,38.20
2019-04-04T03:04:13.887Z,38.20
2019-04-04T03:06:44.148Z,38.40
2019-04-04T03:09:13.594Z,38.30
2019-04-04T03:11:43.091Z,38.70
2019-04-04T03:14:12.726Z,38.80
2019-04-04T03:16:42.296Z,39.10
2019-04-04T03:19:11.802Z,39.10
2019-04-04T03:21:41.360Z,39.30
2019-04-04T03:24:10.802Z,39.20
2019-04-04T03:26:40.242Z,39.00
2019-04-04T03:29:10.720Z,39.20
2019-04-04T03:31:40.372Z,39.90
2019-04-04T03:34:12.326Z,39.80
2019-04-04T03:36:40.952Z,40.00
2019-04-04T03:39:10.451Z,40.50
2019-04-04T03:41:39.990Z,40.20
2019-04-04T03:44:11.267Z,40.20
2019-04-04T03:46:40.774Z,40.30
2019-04-04T03:49:10.379Z,40.70
2019-04-04T03:51:39.828Z,41.40
2019-04-04T03:54:13.668Z,41.00
2019-04-04T03:56:43.161Z,40.90
2019-04-04T03:59:12.669Z,40.90
2019-04-04T04:01:45.368Z,41.10
2019-04-04T04:04:13.261Z,41.20
2019-04-04T04:06:43.238Z,41.10
2019-04-04T04:09:12.911Z,41.70
2019-04-04T04:11:42.457Z,41.90
2019-04-04T04:14:11.935Z,41.90
2019-04-04T04:16:41.675Z,41.50
2019-04-04T04:19:11.178Z,41.80
2019-04-04T04:21:42.902Z,41.60
2019-04-04T04:24:11.932Z,41.70
2019-04-04T04:26:42.245Z,41.40
2019-04-04T04:29:11.868Z,41.70
2019-04-04T04:31:41.394Z,41.60
2019-04-04T04:34:10.916Z,41.50
2019-04-04T04:36:40.536Z,41.60
2019-04-04T04:39:10.083Z,41.50
2019-04-04T04:41:39.743Z,41.40
2019-04-04T04:44:09.238Z,41.30
2019-04-04T04:46:38.777Z,41.50
2019-04-04T04:49:08.604Z,41.00
2019-04-04T04:51:38.045Z,41.00
2019-04-04T04:54:07.534Z,40.80
2019-04-04T04:56:37.165Z,40.50
2019-04-04T04:59:07.273Z,40.60
2019-04-04T05:01:36.749Z,40.20
2019-04-04T05:04:06.228Z,40.20
2019-04-04T05:06:36.388Z,39.80
2019-04-04T05:09:07.173Z,39.90
2019-04-04T05:11:36.642Z,40.10
2019-04-04T05:14:06.219Z,39.90
2019-04-04T05:16:37.773Z,39.80
2019-04-04T05:19:07.001Z,39.60
2019-04-04T05:21:36.474Z,39.40
2019-04-04T05:24:06.247Z,39.80
2019-04-04T05:26:38.485Z,40.10
2019-04-04T05:29:07.072Z,40.10
2019-04-04T05:31:36.881Z,40.00
2019-04-04T05:34:06.630Z,39.70
2019-04-04T05:36:36.917Z,39.90
2019-04-04T05:39:08.546Z,39.60
2019-04-04T05:41:38.069Z,40.10
2019-04-04T05:44:10.047Z,39.80
2019-04-04T05:46:38.637Z,38.80
2019-04-04T05:49:08.579Z,39.60
2019-04-04T05:51:38.199Z,39.30
2019-04-04T05:54:08.413Z,38.90
2019-04-04T05:56:38.111Z,38.90
2019-04-04T05:59:07.771Z,39.00
2019-04-04T06:01:37.412Z,38.90
2019-04-04T06:04:06.866Z,39.10
2019-04-04T06:06:36.332Z,39.20
2019-04-04T06:09:08.003Z,38.80
2019-04-04T06:11:37.730Z,38.50
2019-04-04T06:14:07.623Z,38.60
2019-04-04T06:16:37.137Z,38.40
2019-04-04T06:19:06.879Z,38.40
2019-04-04T06:21:36.580Z,38.60
2019-04-04T06:24:06.496Z,38.00
2019-04-04T06:26:36.123Z,38.20
2019-04-04T06:29:07.076Z,38.60
2019-04-04T06:31:36.513Z,38.10
2019-04-04T06:34:10.077Z,37.40
2019-04-04T06:36:38.437Z,37.30
2019-04-04T06:39:08.782Z,37.30
2019-04-04T06:41:38.286Z,36.90
2019-04-04T06:44:08.010Z,36.80
2019-04-04T06:46:37.530Z,36.70
2019-04-04T06:49:07.708Z,35.80
2019-04-04T06:51:37.780Z,36.00
2019-04-04T06:54:07.677Z,36.10
2019-04-04T06:56:37.203Z,35.30
2019-04-04T06:59:11.253Z,35.60
2019-04-04T07:01:39.657Z,36.70
2019-04-04T07:04:09.535Z,36.00
2019-04-04T07:06:41.683Z,34.80
2019-04-04T07:09:10.128Z,35.50
2019-04-04T07:11:39.858Z,35.10
2019-04-04T07:14:09.535Z,35.60
2019-04-04T07:16:40.506Z,35.10
2019-04-04T07:19:09.973Z,35.50
2019-04-04T07:21:39.456Z,35.70
2019-04-04T07:24:09.062Z,35.00
2019-04-04T07:26:38.548Z,34.70
2019-04-04T07:29:08.059Z,35.10
2019-04-04T07:31:38.377Z,34.90
2019-04-04T07:34:08.119Z,34.70
2019-04-04T07:36:37.601Z,33.60
2019-04-04T07:39:07.597Z,33.90
2019-04-04T07:41:39.968Z,34.60
2019-04-04T07:44:08.674Z,34.80
2019-04-04T07:46:40.929Z,33.90
2019-04-04T07:49:09.302Z,34.00
2019-04-04T07:51:38.894Z,33.80
2019-04-04T07:54:08.457Z,34.00
2019-04-04T07:56:37.982Z,34.60
2019-04-04T07:59:07.498Z,34.20
2019-04-04T08:01:37.064Z,33.90
2019-04-04T08:04:06.891Z,34.70
2019-04-04T08:06:36.562Z,34.10
2019-04-04T08:09:08.037Z,33.80
2019-04-04T08:11:37.720Z,33.10
2019-04-04T08:14:07.269Z,33.80
2019-04-04T08:16:36.777Z,33.40
2019-04-04T08:19:06.288Z,33.10
2019-04-04T08:21:35.756Z,33.10
2019-04-04T08:24:05.225Z,34.00
2019-04-04T08:26:34.739Z,34.00
2019-04-04T08:29:04.614Z,33.80
2019-04-04T08:31:34.093Z,34.10
2019-04-04T08:34:04.721Z,33.10
2019-04-04T08:36:35.772Z,33.60
2019-04-04T08:39:09.311Z,33.90
2019-04-04T08:41:38.853Z,33.70
2019-04-04T08:44:08.595Z,33.70
2019-04-04T08:46:38.143Z,33.00
2019-04-04T08:49:07.673Z,33.10
2019-04-04T08:51:37.198Z,32.90
2019-04-04T08:54:06.737Z,32.70
2019-04-04T08:56:36.241Z,32.20
2019-04-04T08:59:05.860Z,33.00
2019-04-04T09:01:35.437Z,34.00
2019-04-04T09:04:05.243Z,32.70
2019-04-04T09:06:34.745Z,32.60
2019-04-04T09:09:06.677Z,33.00
2019-04-04T09:11:36.270Z,32.90
2019-04-04T09:14:05.862Z,32.90
2019-04-04T09:16:35.351Z,32.30
2019-04-04T09:19:04.900Z,32.70
2019-04-04T09:21:34.736Z,33.30
2019-04-04T09:24:04.195Z,32.40
2019-04-04T09:26:33.751Z,33.00
2019-04-04T09:29:03.332Z,33.30
2019-04-04T09:31:32.808Z,33.50
2019-04-04T09:34:02.324Z,33.50
2019-04-04T09:36:31.927Z,33.20
2019-04-04T09:39:01.451Z,33.10
2019-04-04T09:41:31.369Z,33.70
2019-04-04T09:44:00.926Z,32.70
2019-04-04T09:46:30.376Z,32.40
2019-04-04T09:49:00.016Z,33.80
2019-04-04T09:51:29.506Z,32.60
2019-04-04T09:53:59.079Z,32.70
2019-04-04T09:56:28.732Z,33.10
2019-04-04T09:58:58.243Z,33.00
2019-04-04T10:01:27.744Z,32.50
2019-04-04T10:03:57.378Z,32.90
2019-04-04T10:06:26.866Z,32.90
2019-04-04T10:08:56.501Z,33.30
2019-04-04T10:11:25.977Z,34.00
2019-04-04T10:13:57.148Z,33.80
2019-04-04T10:16:26.671Z,34.00
2019-04-04T10:18:56.120Z,34.10
2019-04-04T10:21:25.738Z,33.70
2019-04-04T10:23:55.258Z,33.50
2019-04-04T10:26:24.709Z,34.10
2019-04-04T10:28:54.245Z,34.10
2019-04-04T10:31:23.754Z,34.20
2019-04-04T10:33:53.231Z,33.40
2019-04-04T10:36:22.830Z,33.00
2019-04-04T10:38:52.320Z,33.10
2019-04-04T10:41:21.813Z,33.00
2019-04-04T10:43:51.303Z,33.20
2019-04-04T10:46:20.865Z,33.10
2019-04-04T10:48:50.311Z,33.10
2019-04-04T10:51:19.845Z,33.30
2019-04-04T10:53:49.416Z,33.90
2019-04-04T10:56:18.849Z,33.10
2019-04-04T10:58:48.324Z,32.80
2019-04-04T11:01:17.924Z,32.90
2019-04-04T11:03:47.423Z,33.00
2019-04-04T11:06:16.860Z,32.40
2019-04-04T11:08:46.360Z,31.90
2019-04-04T11:11:16.019Z,32.50
2019-04-04T11:13:45.503Z,32.80
2019-04-04T11:16:29.116Z,33.00
2019-04-04T11:18:47.830Z,33.20
2019-04-04T11:21:17.344Z,33.20
2019-04-04T11:23:47.162Z,33.70
2019-04-04T11:26:16.614Z,33.00
2019-04-04T11:28:46.091Z,33.30
2019-04-04T11:31:15.669Z,33.10
2019-04-04T11:33:45.186Z,33.40
2019-04-04T11:36:14.617Z,33.10
2019-04-04T11:38:44.373Z,34.00
2019-04-04T11:41:13.891Z,33.50
2019-04-04T11:43:43.486Z,33.30
2019-04-04T11:46:12.984Z,34.10
2019-04-04T11:48:42.498Z,33.80
2019-04-04T11:51:12.397Z,33.50
2019-04-04T11:53:41.862Z,33.50
2019-04-04T11:56:11.377Z,33.90
2019-04-04T11:58:41.008Z,33.50
2019-04-04T12:01:11.712Z,34.10
2019-04-04T12:03:41.619Z,33.60
2019-04-04T12:06:11.088Z,34.40
2019-04-04T12:08:40.678Z,33.80
2019-04-04T12:11:10.173Z,33.80
2019-04-04T12:13:39.672Z,33.90
2019-04-04T12:16:09.382Z,34.10
2019-04-04T12:18:38.876Z,33.80
2019-04-04T12:21:08.354Z,33.90
2019-04-04T12:23:38.044Z,33.70
2019-04-04T12:26:07.598Z,34.10
2019-04-04T12:28:37.076Z,33.80
2019-04-04T12:31:06.792Z,33.90
2019-04-04T12:33:36.285Z,33.70
2019-04-04T12:36:06.126Z,33.80
2019-04-04T12:38:35.626Z,34.10
2019-04-04T12:41:05.132Z,34.10
2019-04-04T12:43:34.917Z,34.20
2019-04-04T12:46:04.413Z,34.60
2019-04-04T12:48:35.510Z,33.70
2019-04-04T12:51:04.976Z,34.10
2019-04-04T12:53:34.687Z,33.60
2019-04-04T12:56:04.342Z,33.80
2019-04-04T12:58:33.984Z,33.80
2019-04-04T13:01:03.513Z,34.00
2019-04-04T13:03:32.982Z,34.00
2019-04-04T13:06:02.667Z,34.20
2019-04-04T13:08:32.205Z,34.30
2019-04-04T13:11:02.046Z,34.10
2019-04-04T13:13:31.506Z,34.40
2019-04-04T13:16:01.029Z,34.30
2019-04-04T13:18:30.901Z,34.30
2019-04-04T13:21:00.362Z,34.50
2019-04-04T13:23:30.159Z,34.90
2019-04-04T13:25:59.619Z,34.80
2019-04-04T13:28:29.133Z,35.20
2019-04-04T13:30:58.748Z,34.20
2019-04-04T13:33:28.243Z,34.70
2019-04-04T13:35:57.773Z,34.60
2019-04-04T13:38:27.407Z,35.00
2019-04-04T13:40:56.867Z,34.70
2019-04-04T13:43:26.385Z,34.70
2019-04-04T13:45:56.033Z,34.50
2019-04-04T13:48:25.592Z,34.60
2019-04-04T13:50:55.467Z,35.30
2019-04-04T13:53:25.447Z,35.20
2019-04-04T13:55:58.260Z,35.20
2019-04-04T13:58:27.099Z,35.10
2019-04-04T14:00:56.600Z,34.90
2019-04-04T14:03:26.553Z,35.70
2019-04-04T14:05:56.037Z,35.50
2019-04-04T14:08:25.531Z,35.80
2019-04-04T14:10:58.453Z,36.40
2019-04-04T14:13:26.380Z,35.80
2019-04-04T14:15:55.777Z,35.80
2019-04-04T14:18:38.156Z,35.90
2019-04-04T14:21:03.679Z,35.80
2019-04-04T14:23:28.260Z,36.20
2019-04-04T14:25:59.706Z,35.90
2019-04-04T14:28:29.329Z,35.90
2019-04-04T14:30:58.898Z,35.80
2019-04-04T14:33:28.360Z,36.50
2019-04-04T14:35:58.031Z,36.00
2019-04-04T14:38:27.568Z,36.10
2019-04-04T14:40:57.020Z,36.30
2019-04-04T14:43:29.748Z,36.40
2019-04-04T14:45:58.521Z,36.80
2019-04-04T14:48:28.090Z,36.20
2019-04-04T14:50:57.580Z,36.60
2019-04-04T14:53:27.137Z,37.00
2019-04-04T14:55:56.756Z,36.90
2019-04-04T14:58:26.218Z,37.10
2019-04-04T15:00:55.740Z,36.70
2019-04-04T15:03:25.388Z,37.10
2019-04-04T15:05:54.859Z,37.10
2019-04-04T15:08:24.375Z,37.50
2019-04-04T15:10:54.154Z,37.50
2019-04-04T15:13:23.680Z,37.50
2019-04-04T15:16:15.996Z,37.40
2019-04-04T15:18:45.545Z,37.50
2019-04-04T15:21:15.594Z,37.60
2019-04-04T15:23:45.087Z,37.80
2019-04-04T15:26:14.720Z,38.10
2019-04-04T15:28:44.205Z,38.10
2019-04-04T15:31:13.678Z,38.10
2019-04-04T15:33:43.261Z,38.20
2019-04-04T15:36:12.721Z,38.00
2019-04-04T15:38:42.184Z,38.00
2019-04-04T15:41:11.869Z,38.30
2019-04-04T15:43:41.404Z,38.30
2019-04-04T15:46:13.334Z,38.40
2019-04-04T15:48:42.878Z,38.70
2019-04-04T15:51:14.624Z,38.70
2019-04-04T15:53:44.266Z,38.80
2019-04-04T15:56:13.901Z,39.10
2019-04-04T15:58:45.399Z,38.90
2019-04-04T16:01:14.891Z,38.90
2019-04-04T16:03:44.962Z,38.80
2019-04-04T16:06:14.915Z,39.10
2019-04-04T16:08:45.676Z,39.50
2019-04-04T16:11:15.293Z,39.10
2019-04-04T16:13:44.781Z,39.20
2019-04-04T16:16:16.677Z,39.30
2019-04-04T16:18:46.165Z,39.50
2019-04-04T16:21:15.675Z,39.80
2019-04-04T16:23:45.425Z,39.90
2019-04-04T16:26:14.937Z,39.80
2019-04-04T16:28:46.804Z,40.20
2019-04-04T16:31:16.315Z,40.50
2019-04-04T16:33:45.986Z,40.50
2019-04-04T16:36:15.481Z,40.60
2019-04-04T16:38:44.962Z,40.80
2019-04-04T16:41:15.933Z,41.10
2019-04-04T16:43:45.466Z,41.30
2019-04-04T16:46:15.390Z,41.50
2019-04-04T16:48:44.888Z,41.50
2019-04-04T16:51:14.547Z,41.70
2019-04-04T16:53:45.158Z,41.80
2019-04-04T16:56:14.675Z,42.00
2019-04-04T16:58:44.585Z,42.10
2019-04-04T17:01:15.352Z,42.30
2019-04-04T17:03:44.861Z,42.30
2019-04-04T17:06:14.373Z,42.40
2019-04-04T17:08:43.996Z,42.70
2019-04-04T17:11:13.550Z,42.60
2019-04-04T17:13:43.377Z,42.80
2019-04-04T17:16:12.917Z,42.70
2019-04-04T17:18:42.778Z,42.70
2019-04-04T17:21:14.319Z,42.50
2019-04-04T17:23:44.004Z,42.60
2019-04-04T17:26:13.521Z,42.80
2019-04-04T17:28:43.753Z,43.10
2019-04-04T17:31:15.778Z,43.50
2019-04-04T17:33:45.334Z,43.50
2019-04-04T17:36:14.845Z,44.20
2019-04-04T17:38:44.823Z,44.50
2019-04-04T17:41:16.776Z,45.00
2019-04-04T17:43:46.276Z,45.10
2019-04-04T17:46:16.120Z,44.90
2019-04-04T17:48:46.044Z,44.90
2019-04-04T17:51:15.693Z,45.20
2019-04-04T17:53:45.121Z,45.20
2019-04-04T17:56:15.799Z,45.40
2019-04-04T17:58:45.269Z,45.30
2019-04-04T18:01:14.776Z,45.20
2019-04-04T18:03:45.370Z,44.80
2019-04-04T18:06:14.857Z,44.90
2019-04-04T18:08:46.436Z,44.70
2019-04-04T18:11:16.105Z,44.90
2019-04-04T18:13:45.608Z,45.20
2019-04-04T18:16:15.538Z,45.20
2019-04-04T18:18:45.083Z,45.10
2019-04-04T18:21:14.696Z,45.50
2019-04-04T18:23:44.490Z,45.30
2019-04-04T18:26:14.194Z,44.80
2019-04-04T18:28:44.837Z,44.80
2019-04-04T18:31:16.007Z,44.70
2019-04-04T18:33:45.992Z,44.90
2019-04-04T18:36:15.583Z,44.70
2019-04-04T18:38:46.007Z,44.50
2019-04-04T18:41:15.529Z,44.80
2019-04-04T18:43:45.063Z,44.60
2019-04-04T18:46:14.532Z,44.80
2019-04-04T18:48:44.133Z,44.80
2019-04-04T18:51:14.158Z,44.70
2019-04-04T18:53:43.944Z,44.90
2019-04-04T18:56:13.962Z,44.60
2019-04-04T18:58:43.727Z,44.40
2019-04-04T19:01:13.504Z,44.60
2019-04-04T19:03:43.638Z,44.30
2019-04-04T19:06:13.801Z,44.30
2019-04-04T19:08:43.996Z,44.00
2019-04-04T19:11:14.090Z,44.20
2019-04-04T19:13:45.588Z,44.20
2019-04-04T19:16:15.416Z,44.20
2019-04-04T19:18:44.878Z,43.90
2019-04-04T19:21:14.643Z,44.10
2019-04-04T19:23:49.579Z,43.90
2019-04-04T19:26:17.165Z,43.90
2019-04-04T19:28:46.679Z,44.10
2019-04-04T19:31:16.195Z,44.00
2019-04-04T19:33:45.773Z,44.00
2019-04-04T19:36:15.261Z,44.10
2019-04-04T19:38:44.784Z,44.20
2019-04-04T19:41:14.549Z,44.00
2019-04-04T19:43:44.029Z,44.10
2019-04-04T19:46:15.990Z,44.20
2019-04-04T19:48:48.215Z,44.00
2019-04-04T19:51:17.166Z,44.20
2019-04-04T19:53:46.689Z,44.10
2019-04-04T19:56:16.392Z,44.90
2019-04-04T19:58:45.896Z,44.20
2019-04-04T20:01:15.494Z,44.40
2019-04-04T20:03:45.104Z,44.20
2019-04-04T20:06:14.572Z,44.60
2019-04-04T20:08:44.093Z,44.60
2019-04-04T20:11:14.828Z,44.10
2019-04-04T20:13:44.758Z,44.00
2019-04-04T20:16:14.300Z,44.20
2019-04-04T20:18:44.361Z,44.00
2019-04-04T20:21:13.859Z,44.20
2019-04-04T20:23:44.863Z,44.10
2019-04-04T20:26:14.918Z,44.00
2019-04-04T20:28:44.720Z,44.30
2019-04-04T20:31:14.454Z,43.90
2019-04-04T20:33:43.960Z,44.30
2019-04-04T20:36:13.720Z,44.20
2019-04-04T20:38:45.513Z,44.20
2019-04-04T20:41:16.590Z,44.10
2019-04-04T20:43:46.345Z,44.30
2019-04-04T20:46:15.877Z,44.40
2019-04-04T20:48:45.410Z,44.00
2019-04-04T20:51:15.000Z,44.20
2019-04-04T20:53:46.521Z,44.40
2019-04-04T20:56:16.103Z,44.90
2019-04-04T20:58:45.642Z,44.50
2019-04-04T21:01:15.123Z,44.20
2019-04-04T21:03:45.994Z,44.30
2019-04-04T21:06:15.473Z,44.40
2019-04-04T21:08:45.008Z,44.00
2019-04-04T21:11:14.655Z,44.20
2019-04-04T21:13:55.575Z,44.40
2019-04-04T21:16:15.479Z,44.30
2019-04-04T21:18:45.160Z,44.60
2019-04-04T21:21:16.652Z,44.60
2019-04-04T21:23:46.468Z,44.60
2019-04-04T21:26:15.978Z,44.50
2019-04-04T21:28:45.460Z,44.20
2019-04-04T21:31:15.288Z,44.10
2019-04-04T21:33:44.848Z,44.10
2019-04-04T21:36:14.460Z,44.20
2019-04-04T21:38:44.022Z,44.10
2019-04-04T21:41:13.519Z,44.20
2019-04-04T21:43:43.143Z,44.30
2019-04-04T21:46:12.652Z,44.60
2019-04-04T21:48:42.684Z,44.30
2019-04-04T21:51:13.388Z,45.50
2019-04-04T21:53:43.604Z,45.30
2019-04-04T21:56:13.729Z,45.40
2019-04-04T21:58:43.637Z,45.60
2019-04-04T22:01:13.699Z,45.50
2019-04-04T22:03:43.163Z,45.60
2019-04-04T22:06:12.593Z,45.60
2019-04-04T22:08:42.118Z,45.50
2019-04-04T22:11:11.640Z,45.50
2019-04-04T22:13:42.807Z,45.50
2019-04-04T22:16:12.230Z,46.00
2019-04-04T22:18:41.752Z,45.80
2019-04-04T22:21:11.467Z,45.90
2019-04-04T22:23:40.943Z,46.10
2019-04-04T22:26:10.733Z,45.90
2019-04-04T22:28:40.190Z,45.90
2019-04-04T22:31:09.709Z,45.90
2019-04-04T22:33:39.326Z,46.20
2019-04-04T22:36:08.797Z,46.30
2019-04-04T22:38:38.325Z,46.20
2019-04-04T22:41:08.133Z,46.20
2019-04-04T22:43:37.582Z,46.30
2019-04-04T22:46:07.105Z,46.40
2019-04-04T22:48:36.693Z,46.60
2019-04-04T22:51:06.992Z,46.60
2019-04-04T22:53:36.493Z,46.60
2019-04-04T22:56:06.640Z,47.20
2019-04-04T22:58:36.449Z,46.60
2019-04-04T23:01:05.953Z,46.50
2019-04-04T23:03:35.426Z,46.50
2019-04-04T23:06:05.502Z,46.60
2019-04-04T23:08:35.137Z,46.60
2019-04-04T23:11:05.109Z,46.70
2019-04-04T23:13:34.911Z,46.50
2019-04-04T23:16:04.372Z,46.50
2019-04-04T23:18:33.829Z,46.50
2019-04-04T23:21:04.486Z,46.80
2019-04-04T23:23:33.947Z,46.60
2019-04-04T23:26:03.399Z,46.50
2019-04-04T23:28:33.095Z,46.60
2019-04-04T23:31:02.579Z,46.40
2019-04-04T23:33:32.700Z,46.50
2019-04-04T23:36:02.162Z,46.50
2019-04-04T23:38:32.184Z,46.60
2019-04-04T23:41:01.744Z,46.60
2019-04-04T23:43:31.281Z,46.80
2019-04-04T23:46:03.097Z,47.10
2019-04-04T23:48:32.704Z,46.90
2019-04-04T23:51:02.635Z,47.30
2019-04-04T23:53:32.091Z,47.20
2019-04-04T23:56:01.610Z,47.20
2019-04-04T23:58:31.428Z,47.20
